Terminal Aerodrome Forecast
Issued by NWS Louisville, KY

Home | Current Version | Previous Version | Text Only | Print | Product List | Glossary On
Versions: 1 2 3 4 5 6 7 8 9 10 11 12 13 14 15 16 17 18 19 20 21
186
FTUS43 KLMK 282120 AAA
TAFSDF
TAF AMD
KSDF 282120Z 2821/2924 26008KT P6SM BKN035
     FM282300 24006KT P6SM VCTS SCT040CB BKN250
     FM290200 20004KT P6SM SCT030 BKN250
      TEMPO 2910/2913 4SM BR BKN015
     FM291400 24006KT P6SM BKN030=

USA.gov is the U.S. government's official web portal to all federal, state and local government web resources and services.